sensor_id;sensor_type;location;lat;lon;timestamp;pressure;altitude;pressure_sealevel;temperature
12854;BMP180;6495;51.808;7.478;2024-02-23T01:20:58;98383.00;;;6.60
12854;BMP180;6495;51.808;7.478;2024-02-23T01:23:27;98376.00;;;6.60
12854;BMP180;6495;51.808;7.478;2024-02-23T01:25:56;98386.00;;;6.50
12854;BMP180;6495;51.808;7.478;2024-02-23T01:28:25;98384.00;;;6.50
12854;BMP180;6495;51.808;7.478;2024-02-23T01:30:54;98392.00;;;6.50
12854;BMP180;6495;51.808;7.478;2024-02-23T01:33:22;98378.00;;;6.50
12854;BMP180;6495;51.808;7.478;2024-02-23T01:35:51;98402.00;;;6.50
12854;BMP180;6495;51.808;7.478;2024-02-23T01:38:51;98413.00;;;6.60
12854;BMP180;6495;51.808;7.478;2024-02-23T01:41:19;98403.00;;;6.60
12854;BMP180;6495;51.808;7.478;2024-02-23T01:43:51;98404.00;;;6.60
12854;BMP180;6495;51.808;7.478;2024-02-23T01:46:20;98399.00;;;6.60
12854;BMP180;6495;51.808;7.478;2024-02-23T01:48:48;98399.00;;;6.60
12854;BMP180;6495;51.808;7.478;2024-02-23T01:51:17;98401.00;;;6.60
12854;BMP180;6495;51.808;7.478;2024-02-23T01:53:45;98406.00;;;6.60
12854;BMP180;6495;51.808;7.478;2024-02-23T01:56:16;98411.00;;;6.60
12854;BMP180;6495;51.808;7.478;2024-02-23T01:58:47;98413.00;;;6.70
12854;BMP180;6495;51.808;7.478;2024-02-23T02:01:24;98419.00;;;6.70
12854;BMP180;6495;51.808;7.478;2024-02-23T02:03:53;98414.00;;;6.60
12854;BMP180;6495;51.808;7.478;2024-02-23T02:06:24;98414.00;;;6.70
12854;BMP180;6495;51.808;7.478;2024-02-23T02:08:52;98421.00;;;6.70
12854;BMP180;6495;51.808;7.478;2024-02-23T02:11:22;98414.00;;;6.60
12854;BMP180;6495;51.808;7.478;2024-02-23T02:13:50;98411.00;;;6.70
12854;BMP180;6495;51.808;7.478;2024-02-23T02:16:19;98418.00;;;6.70
12854;BMP180;6495;51.808;7.478;2024-02-23T02:18:53;98409.00;;;6.60
12854;BMP180;6495;51.808;7.478;2024-02-23T02:21:22;98416.00;;;6.70
12854;BMP180;6495;51.808;7.478;2024-02-23T02:23:52;98425.00;;;6.70
12854;BMP180;6495;51.808;7.478;2024-02-23T02:26:22;98411.00;;;6.70
12854;BMP180;6495;51.808;7.478;2024-02-23T02:28:50;98429.00;;;6.70
12854;BMP180;6495;51.808;7.478;2024-02-23T02:31:19;98430.00;;;6.70
12854;BMP180;6495;51.808;7.478;2024-02-23T02:33:47;98434.00;;;6.70
12854;BMP180;6495;51.808;7.478;2024-02-23T02:36:16;98418.00;;;6.70
12854;BMP180;6495;51.808;7.478;2024-02-23T02:38:52;98430.00;;;6.60
12854;BMP180;6495;51.808;7.478;2024-02-23T02:41:28;98417.00;;;6.70
12854;BMP180;6495;51.808;7.478;2024-02-23T02:43:57;98436.00;;;6.70
12854;BMP180;6495;51.808;7.478;2024-02-23T02:46:25;98428.00;;;6.70
12854;BMP180;6495;51.808;7.478;2024-02-23T02:48:55;98437.00;;;6.70
12854;BMP180;6495;51.808;7.478;2024-02-23T02:51:23;98448.00;;;6.70
12854;BMP180;6495;51.808;7.478;2024-02-23T02:53:58;98444.00;;;6.70
12854;BMP180;6495;51.808;7.478;2024-02-23T02:56:28;98460.00;;;6.70
12854;BMP180;6495;51.808;7.478;2024-02-23T02:58:56;98456.00;;;6.70
12854;BMP180;6495;51.808;7.478;2024-02-23T03:01:25;98458.00;;;6.70
12854;BMP180;6495;51.808;7.478;2024-02-23T03:03:53;98469.00;;;6.70
12854;BMP180;6495;51.808;7.478;2024-02-23T03:06:24;98462.00;;;6.70
12854;BMP180;6495;51.808;7.478;2024-02-23T03:08:52;98468.00;;;6.70
12854;BMP180;6495;51.808;7.478;2024-02-23T03:11:49;98462.00;;;6.70
12854;BMP180;6495;51.808;7.478;2024-02-23T03:14:20;98463.00;;;6.60
12854;BMP180;6495;51.808;7.478;2024-02-23T03:16:49;98476.00;;;6.60
12854;BMP180;6495;51.808;7.478;2024-02-23T03:19:17;98484.00;;;6.60
12854;BMP180;6495;51.808;7.478;2024-02-23T03:21:50;98484.00;;;6.60
12854;BMP180;6495;51.808;7.478;2024-02-23T03:24:18;98490.00;;;6.60
12854;BMP180;6495;51.808;7.478;2024-02-23T03:26:47;98492.00;;;6.60
12854;BMP180;6495;51.808;7.478;2024-02-23T03:29:16;98494.00;;;6.60
12854;BMP180;6495;51.808;7.478;2024-02-23T03:31:45;98500.00;;;6.50
12854;BMP180;6495;51.808;7.478;2024-02-23T03:34:13;98492.00;;;6.50
12854;BMP180;6495;51.808;7.478;2024-02-23T03:36:42;98501.00;;;6.50
12854;BMP180;6495;51.808;7.478;2024-02-23T03:39:10;98501.00;;;6.50
12854;BMP180;6495;51.808;7.478;2024-02-23T03:41:39;98509.00;;;6.50
12854;BMP180;6495;51.808;7.478;2024-02-23T03:44:08;98504.00;;;6.50
12854;BMP180;6495;51.808;7.478;2024-02-23T03:46:38;98505.00;;;6.50
12854;BMP180;6495;51.808;7.478;2024-02-23T03:49:07;98499.00;;;6.50
12854;BMP180;6495;51.808;7.478;2024-02-23T03:51:38;98502.00;;;6.50
12854;BMP180;6495;51.808;7.478;2024-02-23T03:54:08;98510.00;;;6.50
12854;BMP180;6495;51.808;7.478;2024-02-23T03:56:39;98519.00;;;6.50
12854;BMP180;6495;51.808;7.478;2024-02-23T03:59:09;98501.00;;;6.50
12854;BMP180;6495;51.808;7.478;2024-02-23T04:01:39;98510.00;;;6.50
12854;BMP180;6495;51.808;7.478;2024-02-23T04:04:07;98507.00;;;6.40
12854;BMP180;6495;51.808;7.478;2024-02-23T04:06:36;98513.00;;;6.40
12854;BMP180;6495;51.808;7.478;2024-02-23T04:09:05;98515.00;;;6.40
12854;BMP180;6495;51.808;7.478;2024-02-23T04:16:35;98545.00;;;6.40
12854;BMP180;6495;51.808;7.478;2024-02-23T05:27:52;98592.00;;;6.30
12854;BMP180;6495;51.808;7.478;2024-02-23T06:19:07;98578.00;;;6.20
12854;BMP180;6495;51.808;7.478;2024-02-23T06:21:35;98593.00;;;6.20
12854;BMP180;6495;51.808;7.478;2024-02-23T06:24:06;98576.00;;;6.20
12854;BMP180;6495;51.808;7.478;2024-02-23T06:26:35;98589.00;;;6.20
12854;BMP180;6495;51.808;7.478;2024-02-23T06:29:04;98605.00;;;6.20
12854;BMP180;6495;51.808;7.478;2024-02-23T06:31:33;98597.00;;;6.20
12854;BMP180;6495;51.808;7.478;2024-02-23T06:34:01;98600.00;;;6.20
12854;BMP180;6495;51.808;7.478;2024-02-23T06:36:32;98596.00;;;6.20
12854;BMP180;6495;51.808;7.478;2024-02-23T06:39:00;98611.00;;;6.20
12854;BMP180;6495;51.808;7.478;2024-02-23T06:41:29;98608.00;;;6.20
12854;BMP180;6495;51.808;7.478;2024-02-23T06:43:58;98621.00;;;6.20
12854;BMP180;6495;51.808;7.478;2024-02-23T06:46:27;98610.00;;;6.20
12854;BMP180;6495;51.808;7.478;2024-02-23T06:48:55;98613.00;;;6.20
12854;BMP180;6495;51.808;7.478;2024-02-23T08:51:10;98647.00;;;7.00
12854;BMP180;6495;51.808;7.478;2024-02-23T08:53:45;98656.00;;;7.00
12854;BMP180;6495;51.808;7.478;2024-02-23T08:56:22;98649.00;;;7.00
12854;BMP180;6495;51.808;7.478;2024-02-23T08:58:51;98646.00;;;7.00
12854;BMP180;6495;51.808;7.478;2024-02-23T09:01:34;98644.00;;;7.00
12854;BMP180;6495;51.808;7.478;2024-02-23T09:04:03;98648.00;;;7.20
12854;BMP180;6495;51.808;7.478;2024-02-23T09:06:33;98650.00;;;7.30
12854;BMP180;6495;51.808;7.478;2024-02-23T09:09:29;98645.00;;;7.30
12854;BMP180;6495;51.808;7.478;2024-02-23T09:12:09;98643.00;;;7.50
12854;BMP180;6495;51.808;7.478;2024-02-23T11:23:48;98710.00;;;7.80
12854;BMP180;6495;51.808;7.478;2024-02-23T11:26:17;98700.00;;;7.80
12854;BMP180;6495;51.808;7.478;2024-02-23T11:28:48;98706.00;;;7.80
12854;BMP180;6495;51.808;7.478;2024-02-23T11:31:21;98684.00;;;7.90
12854;BMP180;6495;51.808;7.478;2024-02-23T11:33:52;98687.00;;;7.90
12854;BMP180;6495;51.808;7.478;2024-02-23T11:36:28;98696.00;;;8.00
12854;BMP180;6495;51.808;7.478;2024-02-23T11:38:59;98675.00;;;8.00
12854;BMP180;6495;51.808;7.478;2024-02-23T11:41:29;98693.00;;;8.00
12854;BMP180;6495;51.808;7.478;2024-02-23T11:43:58;98696.00;;;8.10
12854;BMP180;6495;51.808;7.478;2024-02-23T11:46:26;98698.00;;;8.10
12854;BMP180;6495;51.808;7.478;2024-02-23T11:48:55;98700.00;;;8.10
12854;BMP180;6495;51.808;7.478;2024-02-23T11:51:24;98702.00;;;8.10
12854;BMP180;6495;51.808;7.478;2024-02-23T11:53:55;98703.00;;;8.20
12854;BMP180;6495;51.808;7.478;2024-02-23T11:56:27;98695.00;;;8.20
12854;BMP180;6495;51.808;7.478;2024-02-23T11:58:56;98694.00;;;8.20
12854;BMP180;6495;51.808;7.478;2024-02-23T12:01:25;98704.00;;;8.20
12854;BMP180;6495;51.808;7.478;2024-02-23T12:03:53;98703.00;;;8.20
12854;BMP180;6495;51.808;7.478;2024-02-23T12:06:22;98697.00;;;8.30
12854;BMP180;6495;51.808;7.478;2024-02-23T12:08:51;98684.00;;;8.30
12854;BMP180;6495;51.808;7.478;2024-02-23T12:11:19;98700.00;;;8.30
12854;BMP180;6495;51.808;7.478;2024-02-23T12:13:49;98695.00;;;8.30
12854;BMP180;6495;51.808;7.478;2024-02-23T12:16:20;98685.00;;;8.30
12854;BMP180;6495;51.808;7.478;2024-02-23T12:18:53;98698.00;;;8.30
12854;BMP180;6495;51.808;7.478;2024-02-23T12:21:24;98689.00;;;8.30
12854;BMP180;6495;51.808;7.478;2024-02-23T12:23:53;98711.00;;;8.30
12854;BMP180;6495;51.808;7.478;2024-02-23T12:26:21;98707.00;;;8.40
12854;BMP180;6495;51.808;7.478;2024-02-23T12:28:51;98714.00;;;8.30
12854;BMP180;6495;51.808;7.478;2024-02-23T12:31:24;98727.00;;;8.30
12854;BMP180;6495;51.808;7.478;2024-02-23T12:33:54;98718.00;;;8.40
12854;BMP180;6495;51.808;7.478;2024-02-23T12:36:25;98719.00;;;8.40
12854;BMP180;6495;51.808;7.478;2024-02-23T12:38:54;98717.00;;;8.40
12854;BMP180;6495;51.808;7.478;2024-02-23T12:41:22;98727.00;;;8.40
12854;BMP180;6495;51.808;7.478;2024-02-23T12:43:52;98720.00;;;8.40
12854;BMP180;6495;51.808;7.478;2024-02-23T12:46:20;98717.00;;;8.40
12854;BMP180;6495;51.808;7.478;2024-02-23T12:48:50;98723.00;;;8.40
12854;BMP180;6495;51.808;7.478;2024-02-23T12:51:19;98718.00;;;8.40
12854;BMP180;6495;51.808;7.478;2024-02-23T12:53:56;98706.00;;;8.30
12854;BMP180;6495;51.808;7.478;2024-02-23T12:56:24;98716.00;;;8.30
12854;BMP180;6495;51.808;7.478;2024-02-23T12:58:54;98717.00;;;8.30
12854;BMP180;6495;51.808;7.478;2024-02-23T13:01:24;98715.00;;;8.30
12854;BMP180;6495;51.808;7.478;2024-02-23T13:03:55;98722.00;;;8.30
12854;BMP180;6495;51.808;7.478;2024-02-23T13:06:24;98726.00;;;8.30
12854;BMP180;6495;51.808;7.478;2024-02-23T13:08:52;98706.00;;;8.30
12854;BMP180;6495;51.808;7.478;2024-02-23T13:11:21;98720.00;;;8.30
12854;BMP180;6495;51.808;7.478;2024-02-23T13:13:50;98727.00;;;8.30
12854;BMP180;6495;51.808;7.478;2024-02-23T13:16:19;98724.00;;;8.30
12854;BMP180;6495;51.808;7.478;2024-02-23T13:18:48;98728.00;;;8.30
12854;BMP180;6495;51.808;7.478;2024-02-23T13:21:17;98723.00;;;8.40
12854;BMP180;6495;51.808;7.478;2024-02-23T13:23:46;98729.00;;;8.40
12854;BMP180;6495;51.808;7.478;2024-02-23T13:26:14;98735.00;;;8.40
12854;BMP180;6495;51.808;7.478;2024-02-23T13:28:43;98736.00;;;8.40
12854;BMP180;6495;51.808;7.478;2024-02-23T13:31:14;98725.00;;;8.40
12854;BMP180;6495;51.808;7.478;2024-02-23T13:33:45;98738.00;;;8.50
12854;BMP180;6495;51.808;7.478;2024-02-23T13:36:14;98730.00;;;8.50
12854;BMP180;6495;51.808;7.478;2024-02-23T13:38:43;98736.00;;;8.60
12854;BMP180;6495;51.808;7.478;2024-02-23T13:41:11;98734.00;;;8.60
12854;BMP180;6495;51.808;7.478;2024-02-23T13:43:40;98736.00;;;8.70
12854;BMP180;6495;51.808;7.478;2024-02-23T13:46:10;98743.00;;;8.70
12854;BMP180;6495;51.808;7.478;2024-02-23T13:48:39;98758.00;;;8.70
12854;BMP180;6495;51.808;7.478;2024-02-23T13:51:09;98768.00;;;8.80
12854;BMP180;6495;51.808;7.478;2024-02-23T13:53:37;98764.00;;;8.70
12854;BMP180;6495;51.808;7.478;2024-02-23T13:56:07;98757.00;;;8.70
12854;BMP180;6495;51.808;7.478;2024-02-23T13:58:35;98758.00;;;8.70
12854;BMP180;6495;51.808;7.478;2024-02-23T14:01:04;98761.00;;;8.80
12854;BMP180;6495;51.808;7.478;2024-02-23T14:03:32;98761.00;;;8.70
12854;BMP180;6495;51.808;7.478;2024-02-23T14:06:01;98767.00;;;8.80
12854;BMP180;6495;51.808;7.478;2024-02-23T14:08:31;98763.00;;;8.80
12854;BMP180;6495;51.808;7.478;2024-02-23T14:11:01;98758.00;;;8.80
12854;BMP180;6495;51.808;7.478;2024-02-23T14:13:30;98760.00;;;8.80
12854;BMP180;6495;51.808;7.478;2024-02-23T14:16:00;98769.00;;;8.80
12854;BMP180;6495;51.808;7.478;2024-02-23T14:18:31;98763.00;;;8.80
12854;BMP180;6495;51.808;7.478;2024-02-23T14:21:04;98764.00;;;8.80
12854;BMP180;6495;51.808;7.478;2024-02-23T14:23:34;98772.00;;;8.80
12854;BMP180;6495;51.808;7.478;2024-02-23T14:26:05;98769.00;;;8.80
12854;BMP180;6495;51.808;7.478;2024-02-23T14:28:37;98776.00;;;8.70
12854;BMP180;6495;51.808;7.478;2024-02-23T14:31:19;98781.00;;;8.80
12854;BMP180;6495;51.808;7.478;2024-02-23T14:33:47;98775.00;;;8.70
12854;BMP180;6495;51.808;7.478;2024-02-23T14:36:54;98775.00;;;8.70
12854;BMP180;6495;51.808;7.478;2024-02-23T14:40:00;98784.00;;;8.70
12854;BMP180;6495;51.808;7.478;2024-02-23T14:42:32;98778.00;;;8.70
12854;BMP180;6495;51.808;7.478;2024-02-23T14:45:02;98779.00;;;8.70
12854;BMP180;6495;51.808;7.478;2024-02-23T14:47:31;98778.00;;;8.70
12854;BMP180;6495;51.808;7.478;2024-02-23T14:50:12;98772.00;;;8.60
12854;BMP180;6495;51.808;7.478;2024-02-23T14:52:49;98775.00;;;8.60
12854;BMP180;6495;51.808;7.478;2024-02-23T14:55:31;98775.00;;;8.70
12854;BMP180;6495;51.808;7.478;2024-02-23T14:58:03;98780.00;;;8.70
12854;BMP180;6495;51.808;7.478;2024-02-23T15:00:37;98793.00;;;8.70
12854;BMP180;6495;51.808;7.478;2024-02-23T15:03:10;98791.00;;;8.70
12854;BMP180;6495;51.808;7.478;2024-02-23T15:05:39;98783.00;;;8.60
12854;BMP180;6495;51.808;7.478;2024-02-23T15:08:10;98796.00;;;8.60
12854;BMP180;6495;51.808;7.478;2024-02-23T15:11:07;98791.00;;;8.60
12854;BMP180;6495;51.808;7.478;2024-02-23T15:13:50;98798.00;;;8.60
12854;BMP180;6495;51.808;7.478;2024-02-23T15:16:25;98798.00;;;8.60
12854;BMP180;6495;51.808;7.478;2024-02-23T15:18:53;98799.00;;;8.60
12854;BMP180;6495;51.808;7.478;2024-02-23T15:21:22;98793.00;;;8.60
12854;BMP180;6495;51.808;7.478;2024-02-23T15:23:54;98800.00;;;8.60
12854;BMP180;6495;51.808;7.478;2024-02-23T15:26:25;98798.00;;;8.60
12854;BMP180;6495;51.808;7.478;2024-02-23T15:28:57;98788.00;;;8.60
12854;BMP180;6495;51.808;7.478;2024-02-23T15:31:27;98791.00;;;8.60
12854;BMP180;6495;51.808;7.478;2024-02-23T15:34:01;98787.00;;;8.60
12854;BMP180;6495;51.808;7.478;2024-02-23T15:36:30;98785.00;;;8.60
12854;BMP180;6495;51.808;7.478;2024-02-23T15:39:00;98783.00;;;8.60
12854;BMP180;6495;51.808;7.478;2024-02-23T15:41:34;98778.00;;;8.60
12854;BMP180;6495;51.808;7.478;2024-02-23T15:44:03;98793.00;;;8.50
12854;BMP180;6495;51.808;7.478;2024-02-23T15:46:32;98784.00;;;8.60
12854;BMP180;6495;51.808;7.478;2024-02-23T15:49:01;98791.00;;;8.50
12854;BMP180;6495;51.808;7.478;2024-02-23T15:51:50;98784.00;;;8.60
12854;BMP180;6495;51.808;7.478;2024-02-23T15:54:27;98793.00;;;8.60
12854;BMP180;6495;51.808;7.478;2024-02-23T15:57:00;98785.00;;;8.60
12854;BMP180;6495;51.808;7.478;2024-02-23T15:59:29;98783.00;;;8.60
12854;BMP180;6495;51.808;7.478;2024-02-23T16:01:58;98783.00;;;8.60
12854;BMP180;6495;51.808;7.478;2024-02-23T16:04:29;98786.00;;;8.60
12854;BMP180;6495;51.808;7.478;2024-02-23T16:07:00;98785.00;;;8.60
12854;BMP180;6495;51.808;7.478;2024-02-23T16:09:29;98795.00;;;8.60
12854;BMP180;6495;51.808;7.478;2024-02-23T16:11:57;98793.00;;;8.50
12854;BMP180;6495;51.808;7.478;2024-02-23T16:14:27;98795.00;;;8.50
12854;BMP180;6495;51.808;7.478;2024-02-23T16:16:56;98812.00;;;8.50
12854;BMP180;6495;51.808;7.478;2024-02-23T16:19:24;98822.00;;;8.50
12854;BMP180;6495;51.808;7.478;2024-02-23T16:21:53;98830.00;;;8.60
12854;BMP180;6495;51.808;7.478;2024-02-23T16:24:21;98820.00;;;8.60
12854;BMP180;6495;51.808;7.478;2024-02-23T16:26:49;98826.00;;;8.50
12854;BMP180;6495;51.808;7.478;2024-02-23T16:29:18;98818.00;;;8.40
12854;BMP180;6495;51.808;7.478;2024-02-23T16:31:49;98816.00;;;8.30
12854;BMP180;6495;51.808;7.478;2024-02-23T16:34:17;98813.00;;;8.30
12854;BMP180;6495;51.808;7.478;2024-02-23T16:36:48;98812.00;;;8.20
12854;BMP180;6495;51.808;7.478;2024-02-23T16:39:20;98811.00;;;8.10
12854;BMP180;6495;51.808;7.478;2024-02-23T16:51:18;98841.00;;;7.80
12854;BMP180;6495;51.808;7.478;2024-02-23T16:53:55;98847.00;;;7.90
12854;BMP180;6495;51.808;7.478;2024-02-23T16:56:44;98860.00;;;7.90
12854;BMP180;6495;51.808;7.478;2024-02-23T17:00:50;98861.00;;;8.00
12854;BMP180;6495;51.808;7.478;2024-02-23T17:04:59;98849.00;;;8.10
12854;BMP180;6495;51.808;7.478;2024-02-23T17:08:25;98852.00;;;8.20
12854;BMP180;6495;51.808;7.478;2024-02-23T17:12:32;98851.00;;;8.30
12854;BMP180;6495;51.808;7.478;2024-02-23T17:20:11;98861.00;;;8.30
12854;BMP180;6495;51.808;7.478;2024-02-23T17:23:26;98865.00;;;8.30
12854;BMP180;6495;51.808;7.478;2024-02-23T17:26:46;98865.00;;;8.30
12854;BMP180;6495;51.808;7.478;2024-02-23T17:29:33;98866.00;;;8.30
12854;BMP180;6495;51.808;7.478;2024-02-23T17:34:00;98851.00;;;8.30
12854;BMP180;6495;51.808;7.478;2024-02-23T17:37:33;98845.00;;;8.20
12854;BMP180;6495;51.808;7.478;2024-02-23T17:40:09;98853.00;;;8.10
12854;BMP180;6495;51.808;7.478;2024-02-23T17:43:25;98860.00;;;8.10
12854;BMP180;6495;51.808;7.478;2024-02-23T17:50:14;98872.00;;;7.90
12854;BMP180;6495;51.808;7.478;2024-02-23T17:53:52;98884.00;;;7.90
12854;BMP180;6495;51.808;7.478;2024-02-23T17:58:07;98872.00;;;7.90
12854;BMP180;6495;51.808;7.478;2024-02-23T18:01:24;98867.00;;;7.90
12854;BMP180;6495;51.808;7.478;2024-02-23T18:04:17;98882.00;;;7.90
12854;BMP180;6495;51.808;7.478;2024-02-23T18:07:12;98878.00;;;7.80
12854;BMP180;6495;51.808;7.478;2024-02-23T18:09:58;98883.00;;;7.80
12854;BMP180;6495;51.808;7.478;2024-02-23T18:12:59;98881.00;;;7.80
12854;BMP180;6495;51.808;7.478;2024-02-23T18:16:04;98886.00;;;7.80
12854;BMP180;6495;51.808;7.478;2024-02-23T18:18:48;98871.00;;;7.80
12854;BMP180;6495;51.808;7.478;2024-02-23T18:21:20;98878.00;;;7.90
12854;BMP180;6495;51.808;7.478;2024-02-23T18:23:49;98881.00;;;7.90
12854;BMP180;6495;51.808;7.478;2024-02-23T18:26:20;98885.00;;;7.80
12854;BMP180;6495;51.808;7.478;2024-02-23T18:28:51;98885.00;;;7.80
12854;BMP180;6495;51.808;7.478;2024-02-23T18:31:21;98889.00;;;7.80
12854;BMP180;6495;51.808;7.478;2024-02-23T18:33:49;98895.00;;;7.80
12854;BMP180;6495;51.808;7.478;2024-02-23T18:36:21;98898.00;;;7.80
12854;BMP180;6495;51.808;7.478;2024-02-23T18:38:52;98897.00;;;7.80
12854;BMP180;6495;51.808;7.478;2024-02-23T18:41:24;98902.00;;;7.80
12854;BMP180;6495;51.808;7.478;2024-02-23T18:43:57;98892.00;;;7.70
12854;BMP180;6495;51.808;7.478;2024-02-23T18:46:29;98897.00;;;7.70
12854;BMP180;6495;51.808;7.478;2024-02-23T18:49:01;98894.00;;;7.70
12854;BMP180;6495;51.808;7.478;2024-02-23T18:51:30;98893.00;;;7.60
12854;BMP180;6495;51.808;7.478;2024-02-23T18:54:02;98897.00;;;7.60
12854;BMP180;6495;51.808;7.478;2024-02-23T18:56:31;98894.00;;;7.60
12854;BMP180;6495;51.808;7.478;2024-02-23T18:59:00;98892.00;;;7.60
12854;BMP180;6495;51.808;7.478;2024-02-23T19:01:30;98900.00;;;7.60
12854;BMP180;6495;51.808;7.478;2024-02-23T19:03:59;98900.00;;;7.60
12854;BMP180;6495;51.808;7.478;2024-02-23T19:06:28;98909.00;;;7.60
12854;BMP180;6495;51.808;7.478;2024-02-23T19:08:57;98903.00;;;7.50
12854;BMP180;6495;51.808;7.478;2024-02-23T19:11:26;98909.00;;;7.50
12854;BMP180;6495;51.808;7.478;2024-02-23T19:13:55;98903.00;;;7.40
12854;BMP180;6495;51.808;7.478;2024-02-23T19:16:24;98901.00;;;7.40
12854;BMP180;6495;51.808;7.478;2024-02-23T19:19:02;98904.00;;;7.50
12854;BMP180;6495;51.808;7.478;2024-02-23T19:21:33;98900.00;;;7.50
12854;BMP180;6495;51.808;7.478;2024-02-23T19:24:08;98911.00;;;7.40
12854;BMP180;6495;51.808;7.478;2024-02-23T19:26:37;98907.00;;;7.40
12854;BMP180;6495;51.808;7.478;2024-02-23T19:29:07;98911.00;;;7.40
12854;BMP180;6495;51.808;7.478;2024-02-23T19:31:40;98911.00;;;7.30
12854;BMP180;6495;51.808;7.478;2024-02-23T19:34:29;98923.00;;;7.30
12854;BMP180;6495;51.808;7.478;2024-02-23T19:37:02;98922.00;;;7.30
12854;BMP180;6495;51.808;7.478;2024-02-23T19:39:31;98923.00;;;7.30
12854;BMP180;6495;51.808;7.478;2024-02-23T19:42:00;98921.00;;;7.30
12854;BMP180;6495;51.808;7.478;2024-02-23T19:44:54;98904.00;;;7.20
12854;BMP180;6495;51.808;7.478;2024-02-23T19:47:24;98910.00;;;7.20
12854;BMP180;6495;51.808;7.478;2024-02-23T19:49:55;98902.00;;;7.20
12854;BMP180;6495;51.808;7.478;2024-02-23T19:52:24;98908.00;;;7.20
12854;BMP180;6495;51.808;7.478;2024-02-23T19:54:53;98916.00;;;7.30
12854;BMP180;6495;51.808;7.478;2024-02-23T19:57:22;98911.00;;;7.20
12854;BMP180;6495;51.808;7.478;2024-02-23T19:59:53;98917.00;;;7.20
12854;BMP180;6495;51.808;7.478;2024-02-23T20:02:22;98927.00;;;7.20
12854;BMP180;6495;51.808;7.478;2024-02-23T20:05:23;98918.00;;;7.20
12854;BMP180;6495;51.808;7.478;2024-02-23T20:07:53;98914.00;;;7.10
12854;BMP180;6495;51.808;7.478;2024-02-23T20:10:28;98923.00;;;7.10
12854;BMP180;6495;51.808;7.478;2024-02-23T20:12:56;98922.00;;;7.10
12854;BMP180;6495;51.808;7.478;2024-02-23T20:18:40;98922.00;;;7.00
12854;BMP180;6495;51.808;7.478;2024-02-23T20:21:11;98923.00;;;7.00
12854;BMP180;6495;51.808;7.478;2024-02-23T20:24:02;98916.00;;;7.00
12854;BMP180;6495;51.808;7.478;2024-02-23T20:26:35;98920.00;;;6.90
12854;BMP180;6495;51.808;7.478;2024-02-23T20:32:56;98924.00;;;6.90
12854;BMP180;6495;51.808;7.478;2024-02-23T20:35:26;98920.00;;;6.80
12854;BMP180;6495;51.808;7.478;2024-02-23T20:38:06;98918.00;;;6.80
12854;BMP180;6495;51.808;7.478;2024-02-23T20:40:36;98927.00;;;6.80
12854;BMP180;6495;51.808;7.478;2024-02-23T20:43:09;98924.00;;;6.80
12854;BMP180;6495;51.808;7.478;2024-02-23T20:45:43;98925.00;;;6.70
12854;BMP180;6495;51.808;7.478;2024-02-23T20:48:11;98917.00;;;6.70
12854;BMP180;6495;51.808;7.478;2024-02-23T20:50:41;98918.00;;;6.70
12854;BMP180;6495;51.808;7.478;2024-02-23T20:53:15;98925.00;;;6.70
12854;BMP180;6495;51.808;7.478;2024-02-23T20:55:50;98920.00;;;6.60
12854;BMP180;6495;51.808;7.478;2024-02-23T20:58:18;98931.00;;;6.60
12854;BMP180;6495;51.808;7.478;2024-02-23T21:00:47;98926.00;;;6.60
12854;BMP180;6495;51.808;7.478;2024-02-23T21:03:17;98933.00;;;6.60
12854;BMP180;6495;51.808;7.478;2024-02-23T21:05:48;98924.00;;;6.60
12854;BMP180;6495;51.808;7.478;2024-02-23T21:08:19;98919.00;;;6.50
12854;BMP180;6495;51.808;7.478;2024-02-23T21:10:47;98920.00;;;6.50
12854;BMP180;6495;51.808;7.478;2024-02-23T21:13:21;98924.00;;;6.50
12854;BMP180;6495;51.808;7.478;2024-02-23T21:15:50;98922.00;;;6.50
12854;BMP180;6495;51.808;7.478;2024-02-23T21:18:22;98927.00;;;6.50
12854;BMP180;6495;51.808;7.478;2024-02-23T21:20:50;98934.00;;;6.50
12854;BMP180;6495;51.808;7.478;2024-02-23T21:23:21;98930.00;;;6.50
12854;BMP180;6495;51.808;7.478;2024-02-23T21:25:52;98939.00;;;6.50
12854;BMP180;6495;51.808;7.478;2024-02-23T21:28:21;98928.00;;;6.50
12854;BMP180;6495;51.808;7.478;2024-02-23T21:30:49;98931.00;;;6.50
12854;BMP180;6495;51.808;7.478;2024-02-23T21:33:23;98926.00;;;6.40
12854;BMP180;6495;51.808;7.478;2024-02-23T21:35:52;98939.00;;;6.40
12854;BMP180;6495;51.808;7.478;2024-02-23T21:38:22;98935.00;;;6.50
12854;BMP180;6495;51.808;7.478;2024-02-23T21:40:51;98942.00;;;6.40
12854;BMP180;6495;51.808;7.478;2024-02-23T21:43:19;98938.00;;;6.40
12854;BMP180;6495;51.808;7.478;2024-02-23T21:45:48;98938.00;;;6.50
12854;BMP180;6495;51.808;7.478;2024-02-23T21:48:16;98937.00;;;6.50
12854;BMP180;6495;51.808;7.478;2024-02-23T21:50:46;98932.00;;;6.50
12854;BMP180;6495;51.808;7.478;2024-02-23T21:53:16;98939.00;;;6.50
12854;BMP180;6495;51.808;7.478;2024-02-23T21:55:58;98945.00;;;6.50
12854;BMP180;6495;51.808;7.478;2024-02-23T21:58:28;98943.00;;;6.50
12854;BMP180;6495;51.808;7.478;2024-02-23T22:00:56;98944.00;;;6.60
12854;BMP180;6495;51.808;7.478;2024-02-23T22:03:36;98943.00;;;6.50
12854;BMP180;6495;51.808;7.478;2024-02-23T22:06:05;98940.00;;;6.50
12854;BMP180;6495;51.808;7.478;2024-02-23T22:08:34;98941.00;;;6.50
12854;BMP180;6495;51.808;7.478;2024-02-23T22:11:04;98942.00;;;6.50
12854;BMP180;6495;51.808;7.478;2024-02-23T22:13:37;98949.00;;;6.50
12854;BMP180;6495;51.808;7.478;2024-02-23T22:16:08;98941.00;;;6.50
12854;BMP180;6495;51.808;7.478;2024-02-23T22:18:41;98951.00;;;6.40
12854;BMP180;6495;51.808;7.478;2024-02-23T22:21:16;98938.00;;;6.40
12854;BMP180;6495;51.808;7.478;2024-02-23T22:23:47;98946.00;;;6.40
12854;BMP180;6495;51.808;7.478;2024-02-23T22:26:17;98942.00;;;6.40
12854;BMP180;6495;51.808;7.478;2024-02-23T22:28:46;98950.00;;;6.40
12854;BMP180;6495;51.808;7.478;2024-02-23T22:31:15;98949.00;;;6.30
12854;BMP180;6495;51.808;7.478;2024-02-23T22:33:43;98948.00;;;6.30
12854;BMP180;6495;51.808;7.478;2024-02-23T22:36:14;98958.00;;;6.30
12854;BMP180;6495;51.808;7.478;2024-02-23T22:38:42;98949.00;;;6.30
12854;BMP180;6495;51.808;7.478;2024-02-23T22:41:11;98946.00;;;6.30
12854;BMP180;6495;51.808;7.478;2024-02-23T22:43:41;98941.00;;;6.30
12854;BMP180;6495;51.808;7.478;2024-02-23T22:46:10;98943.00;;;6.30
12854;BMP180;6495;51.808;7.478;2024-02-23T22:48:39;98946.00;;;6.30
12854;BMP180;6495;51.808;7.478;2024-02-23T22:51:07;98937.00;;;6.30
12854;BMP180;6495;51.808;7.478;2024-02-23T22:53:36;98931.00;;;6.20
12854;BMP180;6495;51.808;7.478;2024-02-23T22:56:05;98938.00;;;6.20
12854;BMP180;6495;51.808;7.478;2024-02-23T22:58:33;98940.00;;;6.30
12854;BMP180;6495;51.808;7.478;2024-02-23T23:01:04;98945.00;;;6.20
12854;BMP180;6495;51.808;7.478;2024-02-23T23:03:35;98939.00;;;6.20
12854;BMP180;6495;51.808;7.478;2024-02-23T23:06:04;98938.00;;;6.20
12854;BMP180;6495;51.808;7.478;2024-02-23T23:08:33;98940.00;;;6.20
12854;BMP180;6495;51.808;7.478;2024-02-23T23:11:03;98945.00;;;6.10